sensor_id;sensor_type;location;lat;lon;timestamp;temperature;humidity
10231;DHT22;62604;49.432;8.680;2023-05-14T00:01:16;13.70;93.50
10231;DHT22;62604;49.432;8.680;2023-05-14T00:03:44;13.60;93.70
10231;DHT22;62604;49.432;8.680;2023-05-14T00:06:14;13.60;94.60
10231;DHT22;62604;49.432;8.680;2023-05-14T00:08:41;13.50;94.40
10231;DHT22;62604;49.432;8.680;2023-05-14T00:11:10;13.40;94.70
10231;DHT22;62604;49.432;8.680;2023-05-14T00:13:37;13.40;96.40
10231;DHT22;62604;49.432;8.680;2023-05-14T00:16:05;13.30;97.10
10231;DHT22;62604;49.432;8.680;2023-05-14T00:18:32;13.20;97.10
10231;DHT22;62604;49.432;8.680;2023-05-14T00:21:15;13.20;97.60
10231;DHT22;62604;49.432;8.680;2023-05-14T00:23:46;13.10;98.40
10231;DHT22;62604;49.432;8.680;2023-05-14T00:26:14;13.10;99.10
10231;DHT22;62604;49.432;8.680;2023-05-14T00:28:41;13.10;99.30
10231;DHT22;62604;49.432;8.680;2023-05-14T00:31:09;13.00;99.90
10231;DHT22;62604;49.432;8.680;2023-05-14T00:33:36;13.00;98.90
10231;DHT22;62604;49.432;8.680;2023-05-14T00:36:04;13.00;99.90
10231;DHT22;62604;49.432;8.680;2023-05-14T00:38:33;13.00;99.90
10231;DHT22;62604;49.432;8.680;2023-05-14T00:41:00;12.90;99.90
10231;DHT22;62604;49.432;8.680;2023-05-14T00:43:28;13.00;99.90
10231;DHT22;62604;49.432;8.680;2023-05-14T00:45:56;13.00;98.90
10231;DHT22;62604;49.432;8.680;2023-05-14T00:48:24;13.00;98.60
10231;DHT22;62604;49.432;8.680;2023-05-14T00:50:53;13.00;98.20
10231;DHT22;62604;49.432;8.680;2023-05-14T00:53:21;13.10;98.00
10231;DHT22;62604;49.432;8.680;2023-05-14T00:55:50;13.00;99.00
10231;DHT22;62604;49.432;8.680;2023-05-14T00:58:18;13.00;99.90
10231;DHT22;62604;49.432;8.680;2023-05-14T01:00:45;12.90;99.90
10231;DHT22;62604;49.432;8.680;2023-05-14T01:03:19;12.90;99.90
10231;DHT22;62604;49.432;8.680;2023-05-14T01:05:53;12.80;99.90
10231;DHT22;62604;49.432;8.680;2023-05-14T01:08:34;12.80;99.90
10231;DHT22;62604;49.432;8.680;2023-05-14T01:11:07;12.80;99.90
10231;DHT22;62604;49.432;8.680;2023-05-14T01:13:43;12.80;99.90
10231;DHT22;62604;49.432;8.680;2023-05-14T01:16:14;12.70;99.90
10231;DHT22;62604;49.432;8.680;2023-05-14T01:18:45;12.70;99.90
10231;DHT22;62604;49.432;8.680;2023-05-14T01:21:41;12.70;99.90
10231;DHT22;62604;49.432;8.680;2023-05-14T01:24:12;12.70;99.90
10231;DHT22;62604;49.432;8.680;2023-05-14T01:26:39;12.70;99.90
10231;DHT22;62604;49.432;8.680;2023-05-14T01:29:12;12.70;99.90
10231;DHT22;62604;49.432;8.680;2023-05-14T01:31:46;12.90;99.00
10231;DHT22;62604;49.432;8.680;2023-05-14T01:34:15;13.00;99.40
10231;DHT22;62604;49.432;8.680;2023-05-14T01:36:50;13.00;99.90
10231;DHT22;62604;49.432;8.680;2023-05-14T01:39:20;13.00;98.60
10231;DHT22;62604;49.432;8.680;2023-05-14T01:41:49;13.00;98.80
10231;DHT22;62604;49.432;8.680;2023-05-14T01:44:17;13.00;99.90
10231;DHT22;62604;49.432;8.680;2023-05-14T01:46:45;12.90;99.90
10231;DHT22;62604;49.432;8.680;2023-05-14T01:49:12;12.90;99.30
10231;DHT22;62604;49.432;8.680;2023-05-14T01:51:40;12.90;98.40
10231;DHT22;62604;49.432;8.680;2023-05-14T01:54:10;13.00;97.00
10231;DHT22;62604;49.432;8.680;2023-05-14T01:56:38;13.00;97.30
10231;DHT22;62604;49.432;8.680;2023-05-14T01:59:06;13.10;96.10
10231;DHT22;62604;49.432;8.680;2023-05-14T02:01:35;13.20;95.90
10231;DHT22;62604;49.432;8.680;2023-05-14T02:04:02;13.30;95.10
10231;DHT22;62604;49.432;8.680;2023-05-14T02:06:37;13.30;94.50
10231;DHT22;62604;49.432;8.680;2023-05-14T02:09:06;13.40;94.40
10231;DHT22;62604;49.432;8.680;2023-05-14T02:11:35;13.40;94.20
10231;DHT22;62604;49.432;8.680;2023-05-14T02:14:03;13.40;94.90
10231;DHT22;62604;49.432;8.680;2023-05-14T02:16:31;13.40;94.70
10231;DHT22;62604;49.432;8.680;2023-05-14T02:18:58;13.40;94.30
10231;DHT22;62604;49.432;8.680;2023-05-14T02:21:25;13.40;94.80
10231;DHT22;62604;49.432;8.680;2023-05-14T02:23:52;13.30;94.20
10231;DHT22;62604;49.432;8.680;2023-05-14T02:26:20;13.30;95.00
10231;DHT22;62604;49.432;8.680;2023-05-14T02:28:49;13.30;94.30
10231;DHT22;62604;49.432;8.680;2023-05-14T02:31:16;13.20;94.30
10231;DHT22;62604;49.432;8.680;2023-05-14T02:33:44;13.20;94.80
10231;DHT22;62604;49.432;8.680;2023-05-14T02:36:11;13.10;95.50
10231;DHT22;62604;49.432;8.680;2023-05-14T02:39:06;13.00;95.80
10231;DHT22;62604;49.432;8.680;2023-05-14T02:41:34;12.90;96.40
10231;DHT22;62604;49.432;8.680;2023-05-14T02:44:25;12.90;96.60
10231;DHT22;62604;49.432;8.680;2023-05-14T02:46:53;12.80;96.20
10231;DHT22;62604;49.432;8.680;2023-05-14T02:49:21;12.90;95.60
10231;DHT22;62604;49.432;8.680;2023-05-14T02:51:48;12.80;96.50
10231;DHT22;62604;49.432;8.680;2023-05-14T02:54:15;12.70;96.00
10231;DHT22;62604;49.432;8.680;2023-05-14T02:56:42;12.70;98.30
10231;DHT22;62604;49.432;8.680;2023-05-14T02:59:09;12.60;99.70
10231;DHT22;62604;49.432;8.680;2023-05-14T03:01:38;12.50;99.90
10231;DHT22;62604;49.432;8.680;2023-05-14T03:04:06;12.50;99.90
10231;DHT22;62604;49.432;8.680;2023-05-14T03:06:33;12.40;99.90
10231;DHT22;62604;49.432;8.680;2023-05-14T03:09:01;12.40;99.90
10231;DHT22;62604;49.432;8.680;2023-05-14T03:11:31;12.30;99.90
10231;DHT22;62604;49.432;8.680;2023-05-14T03:13:59;12.30;99.90
10231;DHT22;62604;49.432;8.680;2023-05-14T03:16:26;12.20;99.90
10231;DHT22;62604;49.432;8.680;2023-05-14T03:18:55;12.10;99.90
10231;DHT22;62604;49.432;8.680;2023-05-14T03:21:22;12.00;99.90
10231;DHT22;62604;49.432;8.680;2023-05-14T03:23:51;12.00;99.90
10231;DHT22;62604;49.432;8.680;2023-05-14T03:26:18;11.90;99.90
10231;DHT22;62604;49.432;8.680;2023-05-14T03:28:49;11.90;99.90
10231;DHT22;62604;49.432;8.680;2023-05-14T03:31:17;11.80;99.90
10231;DHT22;62604;49.432;8.680;2023-05-14T03:33:44;11.60;99.90
10231;DHT22;62604;49.432;8.680;2023-05-14T03:36:14;11.50;99.90
10231;DHT22;62604;49.432;8.680;2023-05-14T03:38:42;11.40;99.90
10231;DHT22;62604;49.432;8.680;2023-05-14T03:41:09;11.50;99.90
10231;DHT22;62604;49.432;8.680;2023-05-14T03:43:36;11.40;99.90
10231;DHT22;62604;49.432;8.680;2023-05-14T03:46:03;11.40;99.90
10231;DHT22;62604;49.432;8.680;2023-05-14T03:48:30;11.30;99.90
10231;DHT22;62604;49.432;8.680;2023-05-14T03:51:00;11.30;99.90
10231;DHT22;62604;49.432;8.680;2023-05-14T03:53:28;11.30;99.90
10231;DHT22;62604;49.432;8.680;2023-05-14T03:55:58;11.20;99.90
10231;DHT22;62604;49.432;8.680;2023-05-14T03:58:26;11.20;99.90
10231;DHT22;62604;49.432;8.680;2023-05-14T04:00:53;11.10;99.90
10231;DHT22;62604;49.432;8.680;2023-05-14T04:03:20;11.20;99.90
10231;DHT22;62604;49.432;8.680;2023-05-14T04:05:47;11.20;99.90
10231;DHT22;62604;49.432;8.680;2023-05-14T04:08:14;11.10;99.90
10231;DHT22;62604;49.432;8.680;2023-05-14T04:10:43;11.10;99.90
10231;DHT22;62604;49.432;8.680;2023-05-14T04:13:11;11.10;99.90
10231;DHT22;62604;49.432;8.680;2023-05-14T04:15:38;11.10;99.90
10231;DHT22;62604;49.432;8.680;2023-05-14T04:18:06;11.10;99.90
10231;DHT22;62604;49.432;8.680;2023-05-14T04:20:33;11.10;99.90
10231;DHT22;62604;49.432;8.680;2023-05-14T04:23:01;11.10;99.90
10231;DHT22;62604;49.432;8.680;2023-05-14T04:25:32;11.10;99.90
10231;DHT22;62604;49.432;8.680;2023-05-14T04:28:00;11.10;99.90
10231;DHT22;62604;49.432;8.680;2023-05-14T04:30:28;11.20;99.90
10231;DHT22;62604;49.432;8.680;2023-05-14T04:32:55;11.20;99.90
10231;DHT22;62604;49.432;8.680;2023-05-14T04:35:23;11.30;99.90
10231;DHT22;62604;49.432;8.680;2023-05-14T04:37:50;11.30;99.90
10231;DHT22;62604;49.432;8.680;2023-05-14T04:40:17;11.40;99.90
10231;DHT22;62604;49.432;8.680;2023-05-14T04:42:44;11.40;99.90
10231;DHT22;62604;49.432;8.680;2023-05-14T04:45:13;11.50;99.90
10231;DHT22;62604;49.432;8.680;2023-05-14T04:47:41;11.60;99.90
10231;DHT22;62604;49.432;8.680;2023-05-14T04:50:09;11.50;99.90
10231;DHT22;62604;49.432;8.680;2023-05-14T04:52:37;11.40;99.90
10231;DHT22;62604;49.432;8.680;2023-05-14T04:55:05;11.40;99.90
10231;DHT22;62604;49.432;8.680;2023-05-14T04:57:33;11.50;99.90
10231;DHT22;62604;49.432;8.680;2023-05-14T05:00:00;11.70;99.90
10231;DHT22;62604;49.432;8.680;2023-05-14T05:02:34;11.80;99.90
10231;DHT22;62604;49.432;8.680;2023-05-14T05:10:49;12.30;99.90
10231;DHT22;62604;49.432;8.680;2023-05-14T05:13:16;12.40;99.90
10231;DHT22;62604;49.432;8.680;2023-05-14T05:15:44;12.60;99.90
10231;DHT22;62604;49.432;8.680;2023-05-14T05:18:13;12.70;99.90
10231;DHT22;62604;49.432;8.680;2023-05-14T05:20:40;12.80;99.90
10231;DHT22;62604;49.432;8.680;2023-05-14T05:23:07;12.70;99.90
10231;DHT22;62604;49.432;8.680;2023-05-14T05:25:34;12.90;99.90
10231;DHT22;62604;49.432;8.680;2023-05-14T05:28:02;13.10;99.90
10231;DHT22;62604;49.432;8.680;2023-05-14T05:30:29;13.20;99.90
10231;DHT22;62604;49.432;8.680;2023-05-14T05:32:56;13.30;99.90
10231;DHT22;62604;49.432;8.680;2023-05-14T05:35:26;13.40;99.90
10231;DHT22;62604;49.432;8.680;2023-05-14T05:40:26;13.90;99.90
10231;DHT22;62604;49.432;8.680;2023-05-14T05:42:53;13.80;99.90
10231;DHT22;62604;49.432;8.680;2023-05-14T05:45:20;14.00;99.90
10231;DHT22;62604;49.432;8.680;2023-05-14T05:47:48;14.20;99.90
10231;DHT22;62604;49.432;8.680;2023-05-14T05:50:15;14.30;99.40
10231;DHT22;62604;49.432;8.680;2023-05-14T05:52:45;14.70;98.90
10231;DHT22;62604;49.432;8.680;2023-05-14T05:55:12;15.20;96.60
10231;DHT22;62604;49.432;8.680;2023-05-14T05:58:08;15.70;93.90
10231;DHT22;62604;49.432;8.680;2023-05-14T06:01:00;16.10;93.00
10231;DHT22;62604;49.432;8.680;2023-05-14T06:03:27;16.50;90.20
10231;DHT22;62604;49.432;8.680;2023-05-14T06:05:54;16.80;87.30
10231;DHT22;62604;49.432;8.680;2023-05-14T06:08:38;17.00;85.90
10231;DHT22;62604;49.432;8.680;2023-05-14T06:14:27;17.40;83.10
10231;DHT22;62604;49.432;8.680;2023-05-14T06:17:08;17.70;81.90
10231;DHT22;62604;49.432;8.680;2023-05-14T06:19:35;17.80;80.60
10231;DHT22;62604;49.432;8.680;2023-05-14T06:22:02;17.60;79.90
10231;DHT22;62604;49.432;8.680;2023-05-14T06:24:31;17.60;79.40
10231;DHT22;62604;49.432;8.680;2023-05-14T06:27:29;18.20;78.80
10231;DHT22;62604;49.432;8.680;2023-05-14T06:29:56;18.30;75.20
10231;DHT22;62604;49.432;8.680;2023-05-14T06:32:24;18.50;76.20
10231;DHT22;62604;49.432;8.680;2023-05-14T06:35:00;18.80;73.10
10231;DHT22;62604;49.432;8.680;2023-05-14T06:37:27;19.10;73.90
10231;DHT22;62604;49.432;8.680;2023-05-14T06:39:57;19.20;72.90
10231;DHT22;62604;49.432;8.680;2023-05-14T06:42:39;19.20;73.40
10231;DHT22;62604;49.432;8.680;2023-05-14T06:45:10;19.00;73.60
10231;DHT22;62604;49.432;8.680;2023-05-14T06:47:37;19.10;73.10
10231;DHT22;62604;49.432;8.680;2023-05-14T06:50:05;19.10;72.80
10231;DHT22;62604;49.432;8.680;2023-05-14T06:52:32;19.30;71.50
10231;DHT22;62604;49.432;8.680;2023-05-14T06:55:01;19.30;71.30
10231;DHT22;62604;49.432;8.680;2023-05-14T06:57:32;19.50;70.00
10231;DHT22;62604;49.432;8.680;2023-05-14T07:00:00;19.00;69.60
10231;DHT22;62604;49.432;8.680;2023-05-14T07:02:28;18.60;72.20
10231;DHT22;62604;49.432;8.680;2023-05-14T07:05:06;18.20;72.80
10231;DHT22;62604;49.432;8.680;2023-05-14T07:07:34;17.70;75.20
10231;DHT22;62604;49.432;8.680;2023-05-14T07:10:03;17.40;77.40
10231;DHT22;62604;49.432;8.680;2023-05-14T07:12:31;17.30;78.20
10231;DHT22;62604;49.432;8.680;2023-05-14T07:14:58;17.40;78.40
10231;DHT22;62604;49.432;8.680;2023-05-14T07:17:25;17.40;78.60
10231;DHT22;62604;49.432;8.680;2023-05-14T07:19:52;18.00;78.00
10231;DHT22;62604;49.432;8.680;2023-05-14T07:22:20;19.20;72.80
10231;DHT22;62604;49.432;8.680;2023-05-14T07:24:47;20.70;66.10
10231;DHT22;62604;49.432;8.680;2023-05-14T07:27:17;22.20;63.60
10231;DHT22;62604;49.432;8.680;2023-05-14T07:29:45;23.50;56.80
10231;DHT22;62604;49.432;8.680;2023-05-14T07:32:14;24.30;51.40
10231;DHT22;62604;49.432;8.680;2023-05-14T07:34:42;25.00;47.00
10231;DHT22;62604;49.432;8.680;2023-05-14T07:37:11;23.80;46.80
10231;DHT22;62604;49.432;8.680;2023-05-14T07:39:39;23.70;48.80
10231;DHT22;62604;49.432;8.680;2023-05-14T07:42:07;24.80;43.80
10231;DHT22;62604;49.432;8.680;2023-05-14T07:44:42;24.70;43.60
10231;DHT22;62604;49.432;8.680;2023-05-14T07:47:20;23.70;43.80
10231;DHT22;62604;49.432;8.680;2023-05-14T07:49:54;25.00;43.50
10231;DHT22;62604;49.432;8.680;2023-05-14T07:52:22;24.90;40.50
10231;DHT22;62604;49.432;8.680;2023-05-14T07:54:50;24.60;41.90
10231;DHT22;62604;49.432;8.680;2023-05-14T07:57:18;25.10;39.40
10231;DHT22;62604;49.432;8.680;2023-05-14T07:59:48;25.50;37.40
10231;DHT22;62604;49.432;8.680;2023-05-14T08:02:17;25.90;35.60
10231;DHT22;62604;49.432;8.680;2023-05-14T08:04:46;25.50;35.00
10231;DHT22;62604;49.432;8.680;2023-05-14T08:07:14;24.40;34.40
10231;DHT22;62604;49.432;8.680;2023-05-14T08:09:44;23.60;36.20
10231;DHT22;62604;49.432;8.680;2023-05-14T08:12:12;21.50;39.60
10231;DHT22;62604;49.432;8.680;2023-05-14T08:14:41;21.70;44.90
10231;DHT22;62604;49.432;8.680;2023-05-14T08:17:10;21.80;42.80
10231;DHT22;62604;49.432;8.680;2023-05-14T08:19:38;21.60;43.70
10231;DHT22;62604;49.432;8.680;2023-05-14T08:22:06;21.10;43.70
10231;DHT22;62604;49.432;8.680;2023-05-14T08:24:43;19.80;46.10
10231;DHT22;62604;49.432;8.680;2023-05-14T08:27:11;19.10;49.70
10231;DHT22;62604;49.432;8.680;2023-05-14T08:29:38;18.50;52.00
10231;DHT22;62604;49.432;8.680;2023-05-14T08:32:06;18.80;54.40
10231;DHT22;62604;49.432;8.680;2023-05-14T08:34:37;18.60;51.10
10231;DHT22;62604;49.432;8.680;2023-05-14T08:37:04;19.00;50.40
10231;DHT22;62604;49.432;8.680;2023-05-14T08:39:31;19.40;53.40
10231;DHT22;62604;49.432;8.680;2023-05-14T08:41:59;19.70;52.60
10231;DHT22;62604;49.432;8.680;2023-05-14T08:44:35;19.70;52.50
10231;DHT22;62604;49.432;8.680;2023-05-14T08:47:04;19.70;52.80
10231;DHT22;62604;49.432;8.680;2023-05-14T08:49:39;19.60;55.70
10231;DHT22;62604;49.432;8.680;2023-05-14T08:52:07;19.20;54.10
10231;DHT22;62604;49.432;8.680;2023-05-14T08:54:35;19.20;55.40
10231;DHT22;62604;49.432;8.680;2023-05-14T08:57:08;19.20;55.30
10231;DHT22;62604;49.432;8.680;2023-05-14T08:59:36;19.60;55.50
10231;DHT22;62604;49.432;8.680;2023-05-14T09:02:05;19.20;55.20
10231;DHT22;62604;49.432;8.680;2023-05-14T09:04:35;19.50;55.00
10231;DHT22;62604;49.432;8.680;2023-05-14T09:07:04;19.50;53.80
10231;DHT22;62604;49.432;8.680;2023-05-14T09:09:32;19.30;53.50
10231;DHT22;62604;49.432;8.680;2023-05-14T09:12:00;18.90;54.00
10231;DHT22;62604;49.432;8.680;2023-05-14T09:14:27;18.60;55.70
10231;DHT22;62604;49.432;8.680;2023-05-14T09:16:56;18.40;58.50
10231;DHT22;62604;49.432;8.680;2023-05-14T09:19:24;18.90;59.70
10231;DHT22;62604;49.432;8.680;2023-05-14T09:21:54;18.80;57.70
10231;DHT22;62604;49.432;8.680;2023-05-14T09:24:25;18.80;55.40
10231;DHT22;62604;49.432;8.680;2023-05-14T09:26:55;18.70;57.70
10231;DHT22;62604;49.432;8.680;2023-05-14T09:29:23;19.50;56.60
10231;DHT22;62604;49.432;8.680;2023-05-14T09:31:51;18.80;54.20
10231;DHT22;62604;49.432;8.680;2023-05-14T09:34:25;19.00;57.00
10231;DHT22;62604;49.432;8.680;2023-05-14T09:36:56;18.60;55.10
10231;DHT22;62604;49.432;8.680;2023-05-14T09:39:29;18.20;56.60
10231;DHT22;62604;49.432;8.680;2023-05-14T09:41:58;17.90;57.50
10231;DHT22;62604;49.432;8.680;2023-05-14T09:44:26;18.30;59.70
10231;DHT22;62604;49.432;8.680;2023-05-14T09:46:55;18.80;60.50
10231;DHT22;62604;49.432;8.680;2023-05-14T09:49:22;19.20;59.70
10231;DHT22;62604;49.432;8.680;2023-05-14T09:51:50;19.50;56.80
10231;DHT22;62604;49.432;8.680;2023-05-14T09:54:23;19.60;55.10
10231;DHT22;62604;49.432;8.680;2023-05-14T09:56:54;19.60;56.00
10231;DHT22;62604;49.432;8.680;2023-05-14T09:59:21;19.60;54.30
10231;DHT22;62604;49.432;8.680;2023-05-14T10:01:49;19.40;55.70
10231;DHT22;62604;49.432;8.680;2023-05-14T10:04:17;19.20;55.80
10231;DHT22;62604;49.432;8.680;2023-05-14T10:06:49;19.40;55.90
10231;DHT22;62604;49.432;8.680;2023-05-14T10:09:19;19.50;56.30
10231;DHT22;62604;49.432;8.680;2023-05-14T10:11:55;19.60;56.40
10231;DHT22;62604;49.432;8.680;2023-05-14T10:14:34;19.80;54.50
10231;DHT22;62604;49.432;8.680;2023-05-14T10:17:04;19.70;55.10
10231;DHT22;62604;49.432;8.680;2023-05-14T10:19:33;19.40;54.50
10231;DHT22;62604;49.432;8.680;2023-05-14T10:22:04;19.50;57.30
10231;DHT22;62604;49.432;8.680;2023-05-14T10:24:33;19.40;54.10
10231;DHT22;62604;49.432;8.680;2023-05-14T10:27:06;19.40;56.00
10231;DHT22;62604;49.432;8.680;2023-05-14T10:29:35;19.70;55.60
10231;DHT22;62604;49.432;8.680;2023-05-14T10:32:04;19.50;56.00
10231;DHT22;62604;49.432;8.680;2023-05-14T10:34:36;19.30;54.70
10231;DHT22;62604;49.432;8.680;2023-05-14T10:37:08;19.60;55.80
10231;DHT22;62604;49.432;8.680;2023-05-14T10:39:42;19.80;54.90
10231;DHT22;62604;49.432;8.680;2023-05-14T10:42:14;19.80;54.30
10231;DHT22;62604;49.432;8.680;2023-05-14T10:44:49;19.80;55.50
10231;DHT22;62604;49.432;8.680;2023-05-14T10:47:17;19.80;55.20
10231;DHT22;62604;49.432;8.680;2023-05-14T10:49:45;19.80;54.90
10231;DHT22;62604;49.432;8.680;2023-05-14T10:52:18;19.90;54.30
10231;DHT22;62604;49.432;8.680;2023-05-14T10:54:49;19.80;54.90
10231;DHT22;62604;49.432;8.680;2023-05-14T10:57:20;19.70;54.70
10231;DHT22;62604;49.432;8.680;2023-05-14T10:59:48;19.50;55.00
10231;DHT22;62604;49.432;8.680;2023-05-14T11:02:20;19.10;57.00
10231;DHT22;62604;49.432;8.680;2023-05-14T11:04:56;19.20;58.30
10231;DHT22;62604;49.432;8.680;2023-05-14T11:07:27;18.80;58.40
10231;DHT22;62604;49.432;8.680;2023-05-14T11:10:03;18.90;58.40
10231;DHT22;62604;49.432;8.680;2023-05-14T11:12:32;18.50;57.70
10231;DHT22;62604;49.432;8.680;2023-05-14T11:15:03;18.20;57.90
10231;DHT22;62604;49.432;8.680;2023-05-14T11:17:31;17.70;58.10
10231;DHT22;62604;49.432;8.680;2023-05-14T11:20:01;17.50;59.70
10231;DHT22;62604;49.432;8.680;2023-05-14T11:22:29;17.60;59.60
10231;DHT22;62604;49.432;8.680;2023-05-14T11:24:59;17.60;60.20
10231;DHT22;62604;49.432;8.680;2023-05-14T11:27:35;17.60;59.70
10231;DHT22;62604;49.432;8.680;2023-05-14T11:30:10;17.60;61.10
10231;DHT22;62604;49.432;8.680;2023-05-14T11:32:38;17.60;60.80
10231;DHT22;62604;49.432;8.680;2023-05-14T11:35:26;17.70;60.50
10231;DHT22;62604;49.432;8.680;2023-05-14T11:37:54;17.80;60.30
10231;DHT22;62604;49.432;8.680;2023-05-14T11:40:21;18.30;59.40
10231;DHT22;62604;49.432;8.680;2023-05-14T11:42:54;18.40;59.80
10231;DHT22;62604;49.432;8.680;2023-05-14T12:12:32;19.60;53.90
10231;DHT22;62604;49.432;8.680;2023-05-14T12:19:07;20.50;50.90
10231;DHT22;62604;49.432;8.680;2023-05-14T12:21:55;19.90;50.60
10231;DHT22;62604;49.432;8.680;2023-05-14T12:24:37;19.40;51.40
10231;DHT22;62604;49.432;8.680;2023-05-14T12:27:06;19.20;51.70
10231;DHT22;62604;49.432;8.680;2023-05-14T12:30:10;19.20;54.20
10231;DHT22;62604;49.432;8.680;2023-05-14T12:32:43;19.70;52.30
10231;DHT22;62604;49.432;8.680;2023-05-14T12:35:15;19.80;52.00
10231;DHT22;62604;49.432;8.680;2023-05-14T12:37:43;20.50;52.50
10231;DHT22;62604;49.432;8.680;2023-05-14T12:40:32;21.70;49.30
10231;DHT22;62604;49.432;8.680;2023-05-14T12:43:18;20.80;47.00
10231;DHT22;62604;49.432;8.680;2023-05-14T12:52:27;21.00;49.50
10231;DHT22;62604;49.432;8.680;2023-05-14T12:55:00;21.50;50.90
10231;DHT22;62604;49.432;8.680;2023-05-14T12:57:42;21.20;46.10
10231;DHT22;62604;49.432;8.680;2023-05-14T13:00:41;20.60;47.30
10231;DHT22;62604;49.432;8.680;2023-05-14T13:03:20;20.10;48.10
10231;DHT22;62604;49.432;8.680;2023-05-14T13:05:51;20.40;50.10
10231;DHT22;62604;49.432;8.680;2023-05-14T13:08:25;20.70;47.80
10231;DHT22;62604;49.432;8.680;2023-05-14T13:14:07;20.70;48.50
10231;DHT22;62604;49.432;8.680;2023-05-14T13:16:43;20.80;47.60
10231;DHT22;62604;49.432;8.680;2023-05-14T13:19:11;20.20;47.90
10231;DHT22;62604;49.432;8.680;2023-05-14T13:21:41;20.10;49.70
10231;DHT22;62604;49.432;8.680;2023-05-14T13:24:19;19.80;49.00
10231;DHT22;62604;49.432;8.680;2023-05-14T13:26:46;19.50;49.10
10231;DHT22;62604;49.432;8.680;2023-05-14T13:29:13;19.20;50.80
10231;DHT22;62604;49.432;8.680;2023-05-14T13:31:47;19.00;51.40
10231;DHT22;62604;49.432;8.680;2023-05-14T13:34:15;18.70;51.90
10231;DHT22;62604;49.432;8.680;2023-05-14T13:36:42;18.60;52.80
10231;DHT22;62604;49.432;8.680;2023-05-14T13:39:46;18.60;53.60
10231;DHT22;62604;49.432;8.680;2023-05-14T13:42:15;18.70;54.40
10231;DHT22;62604;49.432;8.680;2023-05-14T13:44:58;19.30;53.50
10231;DHT22;62604;49.432;8.680;2023-05-14T13:47:29;19.10;52.90
10231;DHT22;62604;49.432;8.680;2023-05-14T13:51:03;18.90;53.40
10231;DHT22;62604;49.432;8.680;2023-05-14T13:53:49;19.00;52.70
10231;DHT22;62604;49.432;8.680;2023-05-14T13:56:31;18.90;54.40
10231;DHT22;62604;49.432;8.680;2023-05-14T13:59:00;19.30;52.20
10231;DHT22;62604;49.432;8.680;2023-05-14T14:01:41;19.00;51.20
10231;DHT22;62604;49.432;8.680;2023-05-14T14:04:09;19.20;51.20
10231;DHT22;62604;49.432;8.680;2023-05-14T14:06:37;20.30;53.60
10231;DHT22;62604;49.432;8.680;2023-05-14T14:09:04;21.50;48.20
10231;DHT22;62604;49.432;8.680;2023-05-14T14:11:34;20.50;46.00
10231;DHT22;62604;49.432;8.680;2023-05-14T14:14:31;20.80;48.80
10231;DHT22;62604;49.432;8.680;2023-05-14T14:16:59;22.00;47.70
10231;DHT22;62604;49.432;8.680;2023-05-14T14:19:27;21.80;43.90
10231;DHT22;62604;49.432;8.680;2023-05-14T14:22:42;21.40;43.50
10231;DHT22;62604;49.432;8.680;2023-05-14T14:25:22;20.60;44.00
10231;DHT22;62604;49.432;8.680;2023-05-14T14:28:10;20.80;44.20
10231;DHT22;62604;49.432;8.680;2023-05-14T14:31:11;21.00;45.70
10231;DHT22;62604;49.432;8.680;2023-05-14T14:33:51;21.00;43.50
10231;DHT22;62604;49.432;8.680;2023-05-14T14:36:20;20.70;43.90
10231;DHT22;62604;49.432;8.680;2023-05-14T14:38:48;21.10;45.10
10231;DHT22;62604;49.432;8.680;2023-05-14T14:41:15;20.90;43.80
10231;DHT22;62604;49.432;8.680;2023-05-14T14:44:17;20.60;46.00
10231;DHT22;62604;49.432;8.680;2023-05-14T14:47:10;20.30;46.20
10231;DHT22;62604;49.432;8.680;2023-05-14T14:49:38;20.20;46.50
10231;DHT22;62604;49.432;8.680;2023-05-14T14:52:07;19.80;47.00
10231;DHT22;62604;49.432;8.680;2023-05-14T14:54:46;19.80;46.90
10231;DHT22;62604;49.432;8.680;2023-05-14T14:57:42;19.50;46.50
10231;DHT22;62604;49.432;8.680;2023-05-14T15:00:15;19.50;45.90
10231;DHT22;62604;49.432;8.680;2023-05-14T15:02:45;19.40;45.00
10231;DHT22;62604;49.432;8.680;2023-05-14T15:05:12;19.40;45.70
10231;DHT22;62604;49.432;8.680;2023-05-14T15:07:40;19.50;45.50
10231;DHT22;62604;49.432;8.680;2023-05-14T15:13:32;19.90;44.70
10231;DHT22;62604;49.432;8.680;2023-05-14T15:16:06;20.10;43.60
10231;DHT22;62604;49.432;8.680;2023-05-14T15:18:42;19.90;44.50
10231;DHT22;62604;49.432;8.680;2023-05-14T15:21:09;20.20;45.80
10231;DHT22;62604;49.432;8.680;2023-05-14T15:23:37;20.20;45.40
10231;DHT22;62604;49.432;8.680;2023-05-14T15:26:06;20.20;45.10
10231;DHT22;62604;49.432;8.680;2023-05-14T15:28:34;20.10;44.50
10231;DHT22;62604;49.432;8.680;2023-05-14T15:31:04;19.70;44.50
10231;DHT22;62604;49.432;8.680;2023-05-14T15:33:31;19.70;45.70
10231;DHT22;62604;49.432;8.680;2023-05-14T15:36:00;19.70;46.20
10231;DHT22;62604;49.432;8.680;2023-05-14T15:38:36;19.50;46.00
10231;DHT22;62604;49.432;8.680;2023-05-14T15:41:20;19.30;45.90
10231;DHT22;62604;49.432;8.680;2023-05-14T15:43:47;19.30;46.70
10231;DHT22;62604;49.432;8.680;2023-05-14T15:46:23;19.50;47.20
10231;DHT22;62604;49.432;8.680;2023-05-14T15:48:51;19.40;46.60
10231;DHT22;62604;49.432;8.680;2023-05-14T15:51:19;19.30;46.60
10231;DHT22;62604;49.432;8.680;2023-05-14T15:53:47;19.20;47.10
10231;DHT22;62604;49.432;8.680;2023-05-14T15:56:16;19.40;48.30
10231;DHT22;62604;49.432;8.680;2023-05-14T15:58:44;19.60;48.00
10231;DHT22;62604;49.432;8.680;2023-05-14T16:01:12;19.70;47.20
10231;DHT22;62604;49.432;8.680;2023-05-14T16:03:43;19.90;45.00
10231;DHT22;62604;49.432;8.680;2023-05-14T16:06:10;20.10;43.50
10231;DHT22;62604;49.432;8.680;2023-05-14T16:08:44;20.40;44.80
10231;DHT22;62604;49.432;8.680;2023-05-14T16:11:30;20.50;42.10
10231;DHT22;62604;49.432;8.680;2023-05-14T16:13:59;20.70;45.40
10231;DHT22;62604;49.432;8.680;2023-05-14T16:16:28;21.10;46.90
10231;DHT22;62604;49.432;8.680;2023-05-14T16:18:57;21.10;46.30
10231;DHT22;62604;49.432;8.680;2023-05-14T16:21:26;21.00;46.60
10231;DHT22;62604;49.432;8.680;2023-05-14T16:23:53;20.30;43.80
10231;DHT22;62604;49.432;8.680;2023-05-14T16:26:22;19.70;45.20
10231;DHT22;62604;49.432;8.680;2023-05-14T16:28:51;19.30;46.70
10231;DHT22;62604;49.432;8.680;2023-05-14T16:31:19;19.00;47.20
10231;DHT22;62604;49.432;8.680;2023-05-14T16:33:49;18.90;47.50
10231;DHT22;62604;49.432;8.680;2023-05-14T16:36:19;18.90;47.70
10231;DHT22;62604;49.432;8.680;2023-05-14T16:38:47;18.90;48.10
10231;DHT22;62604;49.432;8.680;2023-05-14T16:41:15;19.00;46.10
10231;DHT22;62604;49.432;8.680;2023-05-14T16:43:43;19.10;46.10
10231;DHT22;62604;49.432;8.680;2023-05-14T16:46:12;19.10;45.30
10231;DHT22;62604;49.432;8.680;2023-05-14T16:48:41;19.20;44.70
10231;DHT22;62604;49.432;8.680;2023-05-14T16:51:15;19.40;45.50